Time;durP1;ratioP1;P1;durP2;ratioP2;P2;SDS_P1;SDS_P2;PMS_P1;PMS_P2;Temp;Humidity;BMP_temperature;BMP_pressure;BME280_temperature;BME280_humidity;BME280_pressure;Samples;Min_cycle;Max_cycle;Signal;HPM_P1;HPM_P2
2023/07/14 00:00:33;;;;;;;6.82;2.67;;;;;;;;;;4974691;28;20489;-70
2023/07/14 00:02:59;;;;;;;11.65;3.13;;;;;;;;;;4975759;28;20182;-70
2023/07/14 00:05:29;;;;;;;8.20;3.20;;;;;;;;;;4974768;28;20034;-70
2023/07/14 00:07:55;;;;;;;10.43;2.90;;;;;;;;;;4974415;28;20042;-70
2023/07/14 00:10:23;;;;;;;6.82;2.72;;;;;;;;;;4976039;28;20042;-70
2023/07/14 00:12:49;;;;;;;6.95;2.85;;;;;;;;;;4975857;28;20034;-70
2023/07/14 00:15:16;;;;;;;6.72;2.58;;;;;;;;;;4973600;28;20047;-70
2023/07/14 00:17:41;;;;;;;9.85;2.97;;;;;;;;;;4975670;28;20094;-70
2023/07/14 00:20:23;;;;;;;10.40;3.10;;;;;;;;;;4974440;28;20054;-70
2023/07/14 00:22:50;;;;;;;6.40;2.35;;;;;;;;;;4968191;28;20039;-69
2023/07/14 00:25:16;;;;;;;8.02;3.42;;;;;;;;;;4975641;28;20022;-70
2023/07/14 00:27:42;;;;;;;11.18;3.00;;;;;;;;;;4974525;28;20546;-70
2023/07/14 00:30:20;;;;;;;10.45;3.20;;;;;;;;;;4975395;28;20121;-70
2023/07/14 00:32:46;;;;;;;10.15;3.58;;;;;;;;;;4974375;28;20062;-70
2023/07/14 00:35:25;;;;;;;11.75;3.65;;;;;;;;;;4973206;28;20093;-70
2023/07/14 00:37:51;;;;;;;10.43;3.45;;;;;;;;;;4975694;28;20027;-70
2023/07/14 00:40:25;;;;;;;9.52;3.08;;;;;;;;;;4975275;28;20069;-70
2023/07/14 00:42:54;;;;;;;9.18;2.97;;;;;;;;;;4974094;28;20105;-70
2023/07/14 00:45:21;;;;;;;12.48;3.40;;;;;;;;;;4973990;28;20515;-70
2023/07/14 00:47:52;;;;;;;12.60;3.13;;;;;;;;;;4974121;28;20038;-70
2023/07/14 00:50:56;;;;;;;7.22;3.35;;;;;;;;;;4974142;28;20054;-70
2023/07/14 00:53:23;;;;;;;10.23;3.90;;;;;;;;;;4969125;28;20046;-70
2023/07/14 00:55:55;;;;;;;9.50;3.50;;;;;;;;;;4972356;28;20044;-70
2023/07/14 00:58:24;;;;;;;11.02;3.85;;;;;;;;;;4974268;28;20046;-70
2023/07/14 01:01:10;;;;;;;13.02;4.47;;;;;;;;;;4971608;28;20050;-70
2023/07/14 01:03:39;;;;;;;11.90;4.10;;;;;;;;;;4974670;28;20042;-70
2023/07/14 01:06:07;;;;;;;10.13;3.55;;;;;;;;;;4973630;28;20042;-70
2023/07/14 01:08:32;;;;;;;12.25;3.65;;;;;;;;;;4973204;28;20476;-70
2023/07/14 01:10:58;;;;;;;13.88;3.30;;;;;;;;;;4973543;28;20026;-70
2023/07/14 01:13:24;;;;;;;7.00;3.15;;;;;;;;;;4974331;28;20068;-70
2023/07/14 01:15:50;;;;;;;7.45;3.70;;;;;;;;;;4973103;28;20038;-70
2023/07/14 01:18:15;;;;;;;8.00;3.28;;;;;;;;;;4973676;28;20030;-70
2023/07/14 01:20:41;;;;;;;12.02;3.60;;;;;;;;;;4974651;28;20482;-70
2023/07/14 01:23:25;;;;;;;11.05;3.75;;;;;;;;;;4974701;28;20532;-70
2023/07/14 01:26:18;;;;;;;14.10;3.75;;;;;;;;;;4974746;28;20482;-70
2023/07/14 01:28:44;;;;;;;9.48;3.63;;;;;;;;;;4968867;28;20069;-70
2023/07/14 01:31:20;;;;;;;7.30;3.22;;;;;;;;;;4974419;28;20467;-70
2023/07/14 01:33:45;;;;;;;11.23;3.72;;;;;;;;;;4972876;28;20483;-70
2023/07/14 01:36:11;;;;;;;9.80;4.18;;;;;;;;;;4974461;28;20058;-70
2023/07/14 01:38:38;;;;;;;9.32;3.45;;;;;;;;;;4973045;28;20083;-70
2023/07/14 01:41:05;;;;;;;12.80;3.55;;;;;;;;;;4973180;28;20435;-70
2023/07/14 01:43:31;;;;;;;9.07;3.50;;;;;;;;;;4973686;28;20041;-70
2023/07/14 01:46:01;;;;;;;14.52;4.72;;;;;;;;;;4973723;28;20395;-70
2023/07/14 01:48:30;;;;;;;12.63;4.10;;;;;;;;;;4972644;28;20054;-70
2023/07/14 01:50:57;;;;;;;13.27;3.85;;;;;;;;;;4973726;28;20042;-70
2023/07/14 01:53:31;;;;;;;13.18;3.35;;;;;;;;;;4972845;28;20045;-70
2023/07/14 01:55:57;;;;;;;;;;;;;;;;;;4973495;28;20042;-70
2023/07/14 01:58:27;;;;;;;15.40;3.75;;;;;;;;;;5005009;28;20331;-70
2023/07/14 02:00:53;;;;;;;14.65;3.72;;;;;;;;;;4972048;28;20038;-70
2023/07/14 02:03:48;;;;;;;12.38;4.00;;;;;;;;;;4974085;28;20169;-70
2023/07/14 02:06:13;;;;;;;15.35;4.47;;;;;;;;;;4959969;28;20059;-70
2023/07/14 02:08:39;;;;;;;16.23;4.82;;;;;;;;;;4974219;28;20042;-70
2023/07/14 02:11:04;;;;;;;18.88;4.78;;;;;;;;;;4974165;28;20489;-70
2023/07/14 02:13:31;;;;;;;18.08;4.25;;;;;;;;;;4973833;28;20034;-70
2023/07/14 02:15:57;;;;;;;15.88;4.72;;;;;;;;;;4973247;28;20114;-70
2023/07/14 02:18:25;;;;;;;16.00;4.88;;;;;;;;;;4973977;28;20124;-70
2023/07/14 02:20:52;;;;;;;17.88;5.20;;;;;;;;;;4973151;28;20035;-70
2023/07/14 02:23:22;;;;;;;16.60;5.32;;;;;;;;;;4966505;28;20101;-70
2023/07/14 02:25:58;;;;;;;21.95;4.68;;;;;;;;;;4976007;28;20035;-70
2023/07/14 02:28:23;;;;;;;14.32;4.05;;;;;;;;;;4976660;28;20069;-70
2023/07/14 02:30:52;;;;;;;16.80;4.28;;;;;;;;;;4970966;28;20074;-70
2023/07/14 02:33:27;;;;;;;11.02;4.13;;;;;;;;;;4970468;28;20117;-70
2023/07/14 02:36:18;;;;;;;11.77;4.72;;;;;;;;;;4976678;28;20042;-70
2023/07/14 02:38:43;;;;;;;12.43;4.35;;;;;;;;;;4977016;28;20391;-70
2023/07/14 02:41:29;;;;;;;16.75;5.22;;;;;;;;;;4977762;28;20042;-70
2023/07/14 02:43:58;;;;;;;12.25;4.40;;;;;;;;;;4976738;28;20069;-70
2023/07/14 02:46:37;;;;;;;11.10;4.45;;;;;;;;;;4976329;28;20038;-70
2023/07/14 02:49:03;;;;;;;13.18;4.38;;;;;;;;;;4975838;28;20093;-70
2023/07/14 02:51:28;;;;;;;16.63;4.63;;;;;;;;;;4977674;28;20070;-69
2023/07/14 02:53:53;;;;;;;14.25;4.47;;;;;;;;;;4976711;28;20041;-70
2023/07/14 02:56:20;;;;;;;13.52;5.05;;;;;;;;;;4977612;28;20042;-70
2023/07/14 02:58:49;;;;;;;12.25;4.60;;;;;;;;;;4962969;28;20129;-70
2023/07/14 03:01:15;;;;;;;13.45;5.00;;;;;;;;;;4974499;28;20050;-70
2023/07/14 03:03:41;;;;;;;13.82;4.55;;;;;;;;;;4976801;28;20034;-70
2023/07/14 03:06:09;;;;;;;18.23;5.03;;;;;;;;;;4977235;28;20372;-70
2023/07/14 03:08:35;;;;;;;15.43;4.53;;;;;;;;;;4975333;28;20031;-70
2023/07/14 03:11:00;;;;;;;13.23;4.13;;;;;;;;;;4977317;28;20394;-69
2023/07/14 03:13:26;;;;;;;13.40;4.60;;;;;;;;;;4976759;28;20129;-69
2023/07/14 03:15:52;;;;;;;11.13;4.20;;;;;;;;;;4976780;28;20035;-70
2023/07/14 03:18:18;;;;;;;14.45;4.50;;;;;;;;;;4976516;28;20066;-70
2023/07/14 03:20:44;;;;;;;11.60;4.88;;;;;;;;;;4975674;28;20113;-70
2023/07/14 03:23:09;;;;;;;10.35;4.35;;;;;;;;;;4975969;28;20597;-70
2023/07/14 03:25:35;;;;;;;10.10;4.07;;;;;;;;;;4976744;28;20085;-69
2023/07/14 03:28:03;;;;;;;13.75;4.60;;;;;;;;;;4976267;28;21196;-70
2023/07/14 03:30:31;;;;;;;17.98;4.13;;;;;;;;;;4969637;28;20038;-70
2023/07/14 03:32:56;;;;;;;13.38;4.70;;;;;;;;;;4973835;28;20026;-70
2023/07/14 03:35:22;;;;;;;10.05;4.25;;;;;;;;;;4976090;28;20426;-70
2023/07/14 03:37:48;;;;;;;11.77;4.65;;;;;;;;;;4976657;28;20089;-69
2023/07/14 03:40:13;;;;;;;13.32;4.43;;;;;;;;;;4975267;28;20490;-70
2023/07/14 03:42:40;;;;;;;18.77;4.50;;;;;;;;;;4971022;28;20499;-70
2023/07/14 03:45:06;;;;;;;10.15;4.70;;;;;;;;;;4974112;28;20038;-69
2023/07/14 03:47:32;;;;;;;15.40;4.57;;;;;;;;;;4976093;28;20397;-70
2023/07/14 03:49:57;;;;;;;10.90;4.28;;;;;;;;;;4976377;28;20041;-70
2023/07/14 03:52:22;;;;;;;8.88;4.70;;;;;;;;;;4975999;28;20577;-70
2023/07/14 03:54:48;;;;;;;14.02;4.43;;;;;;;;;;4975522;28;20049;-70
2023/07/14 03:57:13;;;;;;;10.98;4.20;;;;;;;;;;4976056;28;20039;-70
2023/07/14 03:59:38;;;;;;;12.80;4.60;;;;;;;;;;4975440;28;20414;-69
2023/07/14 04:02:04;;;;;;;17.17;5.20;;;;;;;;;;4976359;28;20378;-70
2023/07/14 04:04:30;;;;;;;15.07;4.18;;;;;;;;;;4975545;28;20046;-70
2023/07/14 04:06:55;;;;;;;12.23;5.07;;;;;;;;;;4974795;28;20403;-70
2023/07/14 04:09:20;;;;;;;14.77;4.40;;;;;;;;;;4975891;28;20043;-70
2023/07/14 04:11:46;;;;;;;9.20;3.80;;;;;;;;;;4974941;28;20101;-70
2023/07/14 04:14:11;;;;;;;10.68;4.45;;;;;;;;;;4975810;28;20034;-69
2023/07/14 04:16:36;;;;;;;19.33;4.70;;;;;;;;;;4976208;28;20066;-70
2023/07/14 04:19:03;;;;;;;8.43;3.65;;;;;;;;;;4975643;28;20070;-70
2023/07/14 04:21:29;;;;;;;11.65;4.15;;;;;;;;;;4974779;28;20038;-70
2023/07/14 04:23:55;;;;;;;8.50;3.85;;;;;;;;;;4975401;28;20057;-69
2023/07/14 04:26:22;;;;;;;15.30;4.22;;;;;;;;;;4976039;28;20395;-70
2023/07/14 04:28:48;;;;;;;16.58;4.80;;;;;;;;;;4973517;28;20033;-70
2023/07/14 04:31:13;;;;;;;12.93;4.03;;;;;;;;;;4975802;28;20387;-70
2023/07/14 04:33:38;;;;;;;17.05;4.03;;;;;;;;;;4975345;28;20058;-70
2023/07/14 04:36:05;;;;;;;11.60;4.28;;;;;;;;;;4974520;28;20026;-70
2023/07/14 04:38:31;;;;;;;16.48;4.68;;;;;;;;;;4974989;28;20041;-70
2023/07/14 04:40:56;;;;;;;11.95;4.25;;;;;;;;;;4975440;28;20117;-70
2023/07/14 04:43:22;;;;;;;15.75;4.32;;;;;;;;;;4975130;28;20031;-70
2023/07/14 04:45:49;;;;;;;27.45;4.60;;;;;;;;;;4975496;28;20109;-70
2023/07/14 04:48:17;;;;;;;10.38;4.43;;;;;;;;;;4973361;28;20085;-70
2023/07/14 04:50:46;;;;;;;8.63;3.63;;;;;;;;;;4975172;28;20070;-70
2023/07/14 04:53:13;;;;;;;11.52;3.90;;;;;;;;;;4973918;28;20035;-70
2023/07/14 04:55:42;;;;;;;13.00;4.68;;;;;;;;;;4974781;28;20039;-70
2023/07/14 04:58:09;;;;;;;9.05;4.38;;;;;;;;;;4973711;28;20102;-70
2023/07/14 05:00:37;;;;;;;9.68;5.13;;;;;;;;;;4973644;28;20101;-70
2023/07/14 05:03:02;;;;;;;14.93;4.85;;;;;;;;;;4974669;28;20031;-70
2023/07/14 05:05:28;;;;;;;17.35;5.45;;;;;;;;;;4975197;28;20403;-70
2023/07/14 05:07:55;;;;;;;19.92;6.38;;;;;;;;;;4974921;28;20394;-70
2023/07/14 05:10:22;;;;;;;17.55;6.25;;;;;;;;;;4974745;28;20038;-70
2023/07/14 05:12:52;;;;;;;21.20;6.38;;;;;;;;;;4974017;28;20058;-70
2023/07/14 05:15:18;;;;;;;19.20;6.55;;;;;;;;;;4973530;28;20427;-70
2023/07/14 05:17:43;;;;;;;15.88;6.00;;;;;;;;;;4974796;28;20047;-70
2023/07/14 05:20:13;;;;;;;16.33;6.32;;;;;;;;;;4974658;28;20109;-70
2023/07/14 05:22:40;;;;;;;18.90;5.75;;;;;;;;;;4973027;28;20038;-70
2023/07/14 05:25:06;;;;;;;15.48;5.68;;;;;;;;;;4973294;28;20042;-70
2023/07/14 05:27:31;;;;;;;16.23;5.65;;;;;;;;;;4973529;28;20038;-70
2023/07/14 05:29:57;;;;;;;15.95;6.40;;;;;;;;;;4974440;28;20081;-70
2023/07/14 05:32:24;;;;;;;18.15;6.13;;;;;;;;;;4974525;28;20046;-70
2023/07/14 05:34:50;;;;;;;16.65;6.65;;;;;;;;;;4973719;28;20035;-70
2023/07/14 05:37:15;;;;;;;16.83;6.95;;;;;;;;;;4973901;28;20034;-70
2023/07/14 05:39:41;;;;;;;20.73;7.15;;;;;;;;;;5005073;28;20129;-70
2023/07/14 05:42:07;;;;;;;15.15;7.22;;;;;;;;;;4975836;28;20109;-70
2023/07/14 05:44:32;;;;;;;23.38;7.35;;;;;;;;;;4974629;28;20049;-70
2023/07/14 05:46:57;;;;;;;15.23;6.90;;;;;;;;;;4974550;28;20046;-70
2023/07/14 05:49:23;;;;;;;18.30;6.93;;;;;;;;;;4974426;28;20394;-70
2023/07/14 05:51:50;;;;;;;13.90;6.65;;;;;;;;;;4974404;28;20026;-70
2023/07/14 05:54:15;;;;;;;17.83;6.43;;;;;;;;;;4974467;28;20439;-70
2023/07/14 05:56:41;;;;;;;14.90;6.43;;;;;;;;;;4974170;28;20031;-70
2023/07/14 05:59:06;;;;;;;12.82;6.20;;;;;;;;;;4974085;28;20027;-70
2023/07/14 06:01:32;;;;;;;15.77;6.38;;;;;;;;;;4970443;28;20079;-70
2023/07/14 06:03:57;;;;;;;15.07;6.15;;;;;;;;;;4974318;28;20423;-70
2023/07/14 06:06:22;;;;;;;15.10;5.85;;;;;;;;;;4974352;28;20034;-70
2023/07/14 06:08:49;;;;;;;21.40;6.25;;;;;;;;;;4974425;28;20121;-70
2023/07/14 06:11:15;;;;;;;20.02;7.05;;;;;;;;;;4973001;28;20077;-70
2023/07/14 06:13:40;;;;;;;18.05;7.13;;;;;;;;;;4973191;28;20475;-70
2023/07/14 06:16:05;;;;;;;19.88;6.63;;;;;;;;;;4973121;28;20038;-70
2023/07/14 06:18:31;;;;;;;10.95;4.35;;;;;;;;;;4974053;28;20037;-70
2023/07/14 06:20:57;;;;;;;15.25;6.70;;;;;;;;;;4974182;28;20031;-71
2023/07/14 06:23:22;;;;;;;18.13;6.90;;;;;;;;;;4974353;28;20043;-70
2023/07/14 06:25:48;;;;;;;15.07;6.55;;;;;;;;;;4972630;28;20042;-70
2023/07/14 06:28:13;;;;;;;10.18;5.70;;;;;;;;;;4974314;28;20047;-70
2023/07/14 06:30:38;;;;;;;15.48;6.47;;;;;;;;;;4978623;28;20491;-70
2023/07/14 06:33:04;;;;;;;19.35;6.70;;;;;;;;;;4975067;28;20356;-70
2023/07/14 06:35:29;;;;;;;15.88;6.80;;;;;;;;;;4974260;28;20031;-70
2023/07/14 06:37:57;;;;;;;18.67;6.32;;;;;;;;;;4973534;28;20043;-70
2023/07/14 06:40:24;;;;;;;14.80;7.32;;;;;;;;;;4973241;28;20121;-70
2023/07/14 06:42:49;;;;;;;11.55;6.05;;;;;;;;;;4974111;28;20070;-70
2023/07/14 06:45:14;;;;;;;15.43;6.05;;;;;;;;;;4973934;28;20081;-70
2023/07/14 06:47:40;;;;;;;15.75;6.65;;;;;;;;;;4974051;28;20174;-70
2023/07/14 06:50:05;;;;;;;15.45;6.25;;;;;;;;;;4973561;28;20027;-70
2023/07/14 06:52:31;;;;;;;13.98;5.78;;;;;;;;;;4973767;28;20534;-70
2023/07/14 06:54:57;;;;;;;17.27;6.78;;;;;;;;;;4973714;28;20435;-70
2023/07/14 06:57:23;;;;;;;14.80;5.95;;;;;;;;;;4981040;28;20041;-70
2023/07/14 06:59:48;;;;;;;15.20;6.18;;;;;;;;;;4972590;28;20411;-70
2023/07/14 07:02:14;;;;;;;12.15;5.78;;;;;;;;;;4972928;28;20035;-70
2023/07/14 07:04:40;;;;;;;12.55;6.20;;;;;;;;;;4967511;28;20039;-70
2023/07/14 07:07:06;;;;;;;11.80;5.53;;;;;;;;;;4965661;28;20480;-70
2023/07/14 07:09:31;;;;;;;12.30;5.53;;;;;;;;;;4968867;28;20042;-70
2023/07/14 07:11:57;;;;;;;15.35;6.20;;;;;;;;;;4968797;28;20090;-69
2023/07/14 07:14:23;;;;;;;12.10;6.50;;;;;;;;;;4974160;28;20031;-70
2023/07/14 07:16:48;;;;;;;10.02;5.35;;;;;;;;;;4967652;28;20493;-69
2023/07/14 07:19:15;;;;;;;13.07;5.43;;;;;;;;;;4974111;28;20109;-70
2023/07/14 07:21:40;;;;;;;9.70;5.15;;;;;;;;;;4974160;28;20109;-70
2023/07/14 07:24:06;;;;;;;15.00;4.90;;;;;;;;;;4973513;28;20126;-70
2023/07/14 07:26:32;;;;;;;11.63;5.40;;;;;;;;;;4974292;28;20034;-69
2023/07/14 07:28:57;;;;;;;11.38;5.47;;;;;;;;;;4957396;28;20129;-70
2023/07/14 07:31:22;;;;;;;11.82;5.13;;;;;;;;;;4972652;28;20038;-70
2023/07/14 07:33:48;;;;;;;12.70;5.13;;;;;;;;;;4973569;28;20386;-70
2023/07/14 07:36:16;;;;;;;14.45;5.47;;;;;;;;;;4973166;28;20066;-69
2023/07/14 07:38:47;;;;;;;9.35;4.95;;;;;;;;;;4971988;28;20522;-70
2023/07/14 07:41:19;;;;;;;11.52;4.60;;;;;;;;;;4973627;28;20497;-70
2023/07/14 07:43:44;;;;;;;9.68;5.30;;;;;;;;;;4973688;28;20038;-69
2023/07/14 07:46:10;;;;;;;13.88;4.60;;;;;;;;;;4975869;28;20031;-69
2023/07/14 07:48:36;;;;;;;9.23;4.53;;;;;;;;;;4975521;28;20037;-69
2023/07/14 07:51:03;;;;;;;11.77;4.47;;;;;;;;;;4973321;28;20463;-69
2023/07/14 07:53:29;;;;;;;8.25;3.53;;;;;;;;;;4975717;28;20039;-70
2023/07/14 07:55:55;;;;;;;7.28;3.55;;;;;;;;;;4975381;28;20038;-70
2023/07/14 07:58:24;;;;;;;7.63;2.83;;;;;;;;;;4986489;28;20030;-70
2023/07/14 08:00:51;;;;;;;5.47;3.45;;;;;;;;;;4979103;28;20054;-70
2023/07/14 08:03:17;;;;;;;5.68;2.40;;;;;;;;;;4976399;28;20438;-70
2023/07/14 08:05:43;;;;;;;4.15;2.58;;;;;;;;;;4975826;28;20043;-70
2023/07/14 08:08:08;;;;;;;5.13;2.58;;;;;;;;;;4976362;28;20098;-70
2023/07/14 08:10:41;;;;;;;6.07;2.65;;;;;;;;;;4975681;28;20379;-70
2023/07/14 08:13:07;;;;;;;3.63;2.35;;;;;;;;;;4975642;28;20058;-70
2023/07/14 08:15:32;;;;;;;4.13;2.30;;;;;;;;;;4975423;28;20084;-70
2023/07/14 08:17:58;;;;;;;8.57;2.33;;;;;;;;;;4975580;28;20035;-70
2023/07/14 08:20:23;;;;;;;6.18;2.83;;;;;;;;;;4974931;28;20049;-70
2023/07/14 08:22:48;;;;;;;5.18;2.78;;;;;;;;;;4976044;28;20092;-70
2023/07/14 08:25:14;;;;;;;6.22;2.50;;;;;;;;;;4953519;28;20037;-70
2023/07/14 08:27:39;;;;;;;4.65;2.55;;;;;;;;;;4970784;28;20100;-70
2023/07/14 08:30:06;;;;;;;8.60;2.83;;;;;;;;;;4971907;28;20034;-70
2023/07/14 08:32:33;;;;;;;4.45;2.70;;;;;;;;;;4972395;28;20430;-70
2023/07/14 08:34:58;;;;;;;5.85;2.92;;;;;;;;;;4970520;28;20421;-70
2023/07/14 08:37:24;;;;;;;5.10;2.42;;;;;;;;;;4958126;28;20026;-70
2023/07/14 08:39:49;;;;;;;8.35;2.60;;;;;;;;;;4959728;28;20050;-70
2023/07/14 08:42:41;;;;;;;4.70;2.30;;;;;;;;;;4969852;28;20035;-70
2023/07/14 08:45:28;;;;;;;6.45;2.28;;;;;;;;;;4952049;28;20364;-70
2023/07/14 08:48:01;;;;;;;7.13;2.38;;;;;;;;;;4970341;28;20039;-70
2023/07/14 08:50:28;;;;;;;6.38;2.17;;;;;;;;;;4971181;28;20034;-70
2023/07/14 08:52:58;;;;;;;4.22;2.13;;;;;;;;;;4970349;28;20046;-70
2023/07/14 08:55:25;;;;;;;3.92;1.98;;;;;;;;;;4960449;28;20038;-70
2023/07/14 08:57:56;;;;;;;3.70;1.92;;;;;;;;;;4975946;28;20038;-70
2023/07/14 09:00:37;;;;;;;4.80;2.03;;;;;;;;;;4968959;28;20054;-70
2023/07/14 09:03:14;;;;;;;4.55;1.88;;;;;;;;;;4971573;28;20035;-70
2023/07/14 09:05:48;;;;;;;5.50;1.70;;;;;;;;;;4970533;28;20126;-70
2023/07/14 09:08:14;;;;;;;2.78;1.50;;;;;;;;;;4956384;28;20119;-70
2023/07/14 09:10:55;;;;;;;3.60;1.30;;;;;;;;;;4969194;28;20117;-70
2023/07/14 09:13:46;;;;;;;3.78;1.55;;;;;;;;;;4969380;28;20039;-70
2023/07/14 09:16:14;;;;;;;4.57;1.42;;;;;;;;;;4965479;28;20034;-69
2023/07/14 09:18:42;;;;;;;3.40;1.42;;;;;;;;;;4969101;28;20050;-69
2023/07/14 09:21:25;;;;;;;3.47;1.70;;;;;;;;;;4970486;28;20043;-69
2023/07/14 09:24:12;;;;;;;3.47;1.45;;;;;;;;;;4970848;28;20065;-70
2023/07/14 09:26:52;;;;;;;3.75;1.80;;;;;;;;;;4970611;28;20120;-70
2023/07/14 09:29:24;;;;;;;4.70;0.95;;;;;;;;;;4969865;28;20541;-69
2023/07/14 09:31:54;;;;;;;2.70;1.67;;;;;;;;;;4969532;28;20042;-69
2023/07/14 09:34:27;;;;;;;3.72;1.50;;;;;;;;;;4969060;28;20038;-69
2023/07/14 09:36:53;;;;;;;3.65;1.30;;;;;;;;;;4968761;28;20070;-69
2023/07/14 09:39:41;;;;;;;2.55;1.10;;;;;;;;;;4969429;28;20038;-69
2023/07/14 09:42:26;;;;;;;4.00;1.58;;;;;;;;;;4965479;28;20047;-69
2023/07/14 09:44:58;;;;;;;5.75;1.70;;;;;;;;;;4968590;28;20030;-69
2023/07/14 09:47:24;;;;;;;5.20;1.98;;;;;;;;;;4965019;28;20384;-70
2023/07/14 09:49:57;;;;;;;5.43;1.63;;;;;;;;;;4969881;28;20042;-70
2023/07/14 09:52:23;;;;;;;3.47;1.35;;;;;;;;;;4970211;28;20043;-69
2023/07/14 09:54:52;;;;;;;4.57;1.70;;;;;;;;;;4969876;28;20039;-69
2023/07/14 09:57:19;;;;;;;4.82;1.70;;;;;;;;;;4970289;28;20034;-70
2023/07/14 09:59:56;;;;;;;3.67;1.38;;;;;;;;;;4969392;28;20082;-69
2023/07/14 10:02:29;;;;;;;5.18;1.75;;;;;;;;;;4970077;28;20114;-69
2023/07/14 10:04:56;;;;;;;;;;;;;;;;;;4966442;28;20133;-69
2023/07/14 10:07:24;;;;;;;5.18;1.77;;;;;;;;;;5001386;28;19976;-69
2023/07/14 10:09:57;;;;;;;3.58;1.80;;;;;;;;;;4961531;28;20085;-69
2023/07/14 10:12:22;;;;;;;3.92;1.60;;;;;;;;;;4968186;28;20043;-70
2023/07/14 10:14:49;;;;;;;4.97;2.00;;;;;;;;;;4970830;28;20527;-69
2023/07/14 10:17:26;;;;;;;3.85;1.70;;;;;;;;;;4969385;28;20058;-69
2023/07/14 10:19:51;;;;;;;3.53;1.50;;;;;;;;;;4970251;28;20475;-69
2023/07/14 10:22:19;;;;;;;4.07;1.92;;;;;;;;;;4970248;28;20097;-69
2023/07/14 10:24:45;;;;;;;4.03;1.98;;;;;;;;;;4970440;28;20033;-69
2023/07/14 10:27:25;;;;;;;5.05;2.17;;;;;;;;;;4970391;28;20047;-69
2023/07/14 10:30:09;;;;;;;5.15;1.85;;;;;;;;;;4970013;28;20483;-69
2023/07/14 10:32:44;;;;;;;4.07;2.05;;;;;;;;;;4969449;28;20047;-69
2023/07/14 10:35:19;;;;;;;5.88;1.77;;;;;;;;;;4968561;28;20450;-69
2023/07/14 10:37:50;;;;;;;5.60;2.03;;;;;;;;;;4969267;28;20043;-69
2023/07/14 10:40:21;;;;;;;4.40;2.28;;;;;;;;;;4966649;28;20037;-69
2023/07/14 10:43:08;;;;;;;5.53;1.90;;;;;;;;;;4969047;28;20045;-69
2023/07/14 10:45:34;;;;;;;6.07;2.35;;;;;;;;;;4960828;28;20066;-69
2023/07/14 10:48:04;;;;;;;5.78;2.08;;;;;;;;;;4971595;28;20961;-69
2023/07/14 10:50:35;;;;;;;4.85;1.90;;;;;;;;;;4972352;28;20154;-69
2023/07/14 10:53:22;;;;;;;2.72;1.38;;;;;;;;;;4971686;28;20102;-70
2023/07/14 10:55:49;;;;;;;4.53;1.98;;;;;;;;;;4968820;28;20086;-69
2023/07/14 10:58:21;;;;;;;7.05;2.45;;;;;;;;;;4971739;28;20074;-69
2023/07/14 11:01:22;;;;;;;5.60;2.55;;;;;;;;;;4972458;28;20102;-69
2023/07/14 11:03:59;;;;;;;7.30;2.25;;;;;;;;;;4967019;28;20054;-69
2023/07/14 11:06:29;;;;;;;7.65;2.40;;;;;;;;;;4971495;28;20045;-69
2023/07/14 11:08:56;;;;;;;6.88;2.30;;;;;;;;;;4971119;28;20121;-69
2023/07/14 11:11:59;;;;;;;5.35;2.20;;;;;;;;;;4961213;28;20037;-70
2023/07/14 11:15:00;;;;;;;6.43;2.30;;;;;;;;;;4969989;28;20042;-69
2023/07/14 11:17:41;;;;;;;6.10;2.47;;;;;;;;;;4972135;28;20195;-70
2023/07/14 11:20:17;;;;;;;7.93;2.60;;;;;;;;;;4970801;28;20106;-70
2023/07/14 11:23:05;;;;;;;6.22;2.33;;;;;;;;;;4971357;28;20034;-70
2023/07/14 11:25:39;;;;;;;4.00;2.05;;;;;;;;;;4972275;28;20090;-70
2023/07/14 11:28:29;;;;;;;8.48;2.58;;;;;;;;;;4970152;28;20666;-69
2023/07/14 11:30:57;;;;;;;4.55;1.50;;;;;;;;;;4972295;28;20043;-69
2023/07/14 11:33:38;;;;;;;3.10;1.50;;;;;;;;;;4971502;28;20045;-69
2023/07/14 11:36:11;;;;;;;4.95;1.58;;;;;;;;;;4972986;28;20515;-69
2023/07/14 11:38:56;;;;;;;5.32;1.58;;;;;;;;;;4973012;28;20039;-69
2023/07/14 11:41:22;;;;;;;3.45;1.50;;;;;;;;;;4962562;28;20043;-69
2023/07/14 11:43:47;;;;;;;3.65;1.80;;;;;;;;;;4963423;28;20041;-69
2023/07/14 11:46:16;;;;;;;8.00;1.83;;;;;;;;;;4969397;28;20038;-69
2023/07/14 11:48:53;;;;;;;3.92;1.40;;;;;;;;;;4982744;28;20030;-69
2023/07/14 11:51:20;;;;;;;4.28;1.88;;;;;;;;;;4971685;28;20554;-69
2023/07/14 11:54:15;;;;;;;5.57;1.65;;;;;;;;;;4959630;28;20034;-69
2023/07/14 11:56:44;;;;;;;9.25;1.73;;;;;;;;;;4963461;28;20054;-69
2023/07/14 11:59:21;;;;;;;4.32;1.70;;;;;;;;;;4969117;28;20039;-69
2023/07/14 12:01:48;;;;;;;5.95;1.75;;;;;;;;;;4971847;28;20557;-69
2023/07/14 12:04:19;;;;;;;4.45;1.40;;;;;;;;;;4970297;28;20038;-69
2023/07/14 12:06:48;;;;;;;4.22;1.67;;;;;;;;;;4963683;28;20045;-69
2023/07/14 12:09:16;;;;;;;3.30;1.52;;;;;;;;;;4966013;28;20034;-69
2023/07/14 12:11:41;;;;;;;4.15;1.52;;;;;;;;;;4965269;28;20051;-69
2023/07/14 12:14:31;;;;;;;5.10;1.80;;;;;;;;;;4966300;28;20039;-69
2023/07/14 12:16:58;;;;;;;9.38;2.20;;;;;;;;;;4965911;28;20066;-69
2023/07/14 12:19:32;;;;;;;5.72;2.00;;;;;;;;;;4970083;28;20034;-69
2023/07/14 12:22:06;;;;;;;3.20;1.58;;;;;;;;;;4963472;28;20062;-69
2023/07/14 12:24:38;;;;;;;6.25;1.83;;;;;;;;;;4967562;28;20042;-69
2023/07/14 12:27:25;;;;;;;6.40;1.90;;;;;;;;;;4961742;28;20506;-70
2023/07/14 12:29:52;;;;;;;5.95;1.67;;;;;;;;;;4964163;28;20035;-69
2023/07/14 12:32:19;;;;;;;4.28;1.73;;;;;;;;;;4958570;28;20043;-70
2023/07/14 12:34:46;;;;;;;5.00;1.63;;;;;;;;;;4973771;28;20030;-70
2023/07/14 12:37:16;;;;;;;6.75;1.92;;;;;;;;;;4964758;28;20043;-69
2023/07/14 12:39:51;;;;;;;5.32;2.00;;;;;;;;;;4975212;28;20038;-69
2023/07/14 12:42:16;;;;;;;5.78;2.13;;;;;;;;;;4969645;28;20622;-69
2023/07/14 12:44:42;;;;;;;4.90;1.60;;;;;;;;;;4973738;28;20117;-70
2023/07/14 12:47:18;;;;;;;7.10;2.22;;;;;;;;;;4961953;28;20031;-69
2023/07/14 12:49:49;;;;;;;9.15;2.25;;;;;;;;;;4959293;28;20423;-69
2023/07/14 12:52:20;;;;;;;5.97;2.45;;;;;;;;;;4969262;28;20046;-69
2023/07/14 12:54:47;;;;;;;8.13;2.38;;;;;;;;;;4959210;28;20047;-69
2023/07/14 12:57:16;;;;;;;7.70;2.53;;;;;;;;;;4957954;28;20097;-69
2023/07/14 12:59:47;;;;;;;8.55;2.00;;;;;;;;;;4959830;28;20070;-69
2023/07/14 13:02:12;;;;;;;3.25;1.65;;;;;;;;;;4958181;28;20118;-69
2023/07/14 13:04:38;;;;;;;10.25;2.20;;;;;;;;;;4971114;28;20137;-69
2023/07/14 13:07:06;;;;;;;6.90;2.10;;;;;;;;;;4971019;28;20030;-69
2023/07/14 13:09:31;;;;;;;6.53;2.30;;;;;;;;;;4968586;28;20529;-69
2023/07/14 13:11:58;;;;;;;7.68;2.10;;;;;;;;;;4970631;28;20066;-69
2023/07/14 13:14:28;;;;;;;5.30;2.00;;;;;;;;;;4970900;28;20086;-69
2023/07/14 13:16:53;;;;;;;6.13;2.08;;;;;;;;;;4969577;28;20595;-69
2023/07/14 13:19:38;;;;;;;5.90;2.70;;;;;;;;;;4970640;28;20035;-69
2023/07/14 13:22:04;;;;;;;6.78;2.28;;;;;;;;;;4969600;28;20039;-69
2023/07/14 13:24:32;;;;;;;4.60;2.30;;;;;;;;;;4971433;28;20109;-68
2023/07/14 13:27:00;;;;;;;4.78;2.55;;;;;;;;;;4962598;28;20038;-70
2023/07/14 13:29:34;;;;;;;9.77;2.50;;;;;;;;;;4974667;28;20041;-69
2023/07/14 13:32:19;;;;;;;6.90;2.78;;;;;;;;;;4971181;28;20471;-69
2023/07/14 13:34:49;;;;;;;10.23;2.53;;;;;;;;;;4963436;28;20045;-69
2023/07/14 13:37:15;;;;;;;5.38;2.80;;;;;;;;;;4969887;28;20141;-69
2023/07/14 13:39:42;;;;;;;11.40;2.78;;;;;;;;;;4971178;28;20082;-69
2023/07/14 13:42:24;;;;;;;5.47;2.80;;;;;;;;;;4964767;28;20035;-69
2023/07/14 13:44:51;;;;;;;7.80;3.20;;;;;;;;;;4963227;28;20057;-69
2023/07/14 13:47:18;;;;;;;10.10;3.08;;;;;;;;;;4970773;28;20050;-69
2023/07/14 13:49:45;;;;;;;8.10;2.45;;;;;;;;;;4970788;28;20042;-69
2023/07/14 13:52:13;;;;;;;5.72;2.95;;;;;;;;;;4970796;28;20031;-69
2023/07/14 13:54:48;;;;;;;6.65;2.90;;;;;;;;;;4970995;28;20031;-69
2023/07/14 13:57:13;;;;;;;9.45;3.08;;;;;;;;;;4967830;28;20047;-69
2023/07/14 13:59:42;;;;;;;7.15;2.78;;;;;;;;;;4972976;28;20046;-69
2023/07/14 14:02:44;;;;;;;8.07;2.55;;;;;;;;;;4972245;28;20113;-69
2023/07/14 14:05:23;;;;;;;5.47;2.50;;;;;;;;;;4970871;28;20047;-69
2023/07/14 14:07:50;;;;;;;5.90;2.05;;;;;;;;;;4969465;28;20042;-69
2023/07/14 14:10:19;;;;;;;6.35;2.63;;;;;;;;;;4973809;28;20057;-70
2023/07/14 14:12:45;;;;;;;5.50;2.67;;;;;;;;;;4971145;28;20498;-70
2023/07/14 14:15:15;;;;;;;6.30;2.70;;;;;;;;;;4970616;28;20039;-69
2023/07/14 14:17:43;;;;;;;6.00;2.50;;;;;;;;;;4970428;28;20122;-70
2023/07/14 14:20:18;;;;;;;7.30;3.00;;;;;;;;;;4970735;28;20034;-70
2023/07/14 14:22:45;;;;;;;7.05;2.90;;;;;;;;;;4973535;28;20054;-69
2023/07/14 14:25:16;;;;;;;6.45;2.72;;;;;;;;;;4960117;28;20047;-70
2023/07/14 14:27:43;;;;;;;6.93;2.88;;;;;;;;;;4972371;28;20034;-69
2023/07/14 14:30:09;;;;;;;5.53;2.03;;;;;;;;;;4981214;28;20026;-69
2023/07/14 14:32:36;;;;;;;4.05;2.13;;;;;;;;;;4974188;28;20036;-69
2023/07/14 14:35:16;;;;;;;2.70;1.52;;;;;;;;;;4972116;28;20043;-69
2023/07/14 14:37:41;;;;;;;6.25;2.38;;;;;;;;;;4967723;28;20399;-69
2023/07/14 14:40:12;;;;;;;4.45;2.53;;;;;;;;;;4973022;28;20046;-70
2023/07/14 14:42:37;;;;;;;3.75;2.17;;;;;;;;;;4974054;28;20035;-70
2023/07/14 14:45:03;;;;;;;4.03;2.15;;;;;;;;;;4974576;28;20038;-70
2023/07/14 14:47:28;;;;;;;3.25;2.20;;;;;;;;;;4973766;28;20493;-69
2023/07/14 14:49:53;;;;;;;4.82;2.30;;;;;;;;;;4974254;28;20031;-69
2023/07/14 14:52:19;;;;;;;4.63;2.33;;;;;;;;;;4973279;28;20395;-69